< < Back
Terminal Aerodrome Forecast


Current Version              Previous Versions:   1  2  3  4  5  6  7  8  9  

Terminal Aerodrome Forecast

746
FTUS44 KBMX 031720
TAFMGM
TAF
KMGM 031720Z 0318/0418 32005KT P6SM SCT040 BKN250
     FM041000 30001KT 5SM BR SKC
     FM041400 VRB03KT P6SM FEW250=

Latest METAR

654
SAUS80 KWBC 031900 RRB
MTRMGM
METAR KMGM 031853Z 36007KT 10SM CLR 35/19 A2996 RMK AO2 SLP141
T03500189


USA.gov is the U.S. government's official web portal to all federal, state and local government web resources and services.